Sparwood, Canada
Current Conditions -  °F | °C
As of 12:00 PM on Friday 21 Nov 2014 (Local Time) from CYXC Reporting Station
Scattered Clouds Scattered Clouds  
Wind Chill: 30°   Ceiling: Unl
Heat Index: 30°   Visibility: 25mi
Dew Point: 25°   Wind: 3mph
Humidity: 80%   Direction: 240°WSW
Pressure: 29.78"   Gusts: NA
Location:  49.72°N, 114.89°W
Report Text: CYXC 211900Z 24003KT 25SM FEW035 SCT160 M01/M04 A2978 RMK SC1AC2 SLP124
Loading
Personal Weather Stations






























Interactive Weather Map New forecast layout! Learn more

10-Day Weather Forecast

Advertisements
Track Severe Weather on mobile